sensor_id;sensor_type;location;lat;lon;timestamp;temperature;humidity
69800;DHT22;67217;51.008;4.644;2024-02-15T00:01:06;13.60;92.80
69800;DHT22;67217;51.008;4.644;2024-02-15T00:03:34;13.70;92.60
69800;DHT22;67217;51.008;4.644;2024-02-15T00:06:02;13.70;92.40
69800;DHT22;67217;51.008;4.644;2024-02-15T00:08:30;13.70;92.40
69800;DHT22;67217;51.008;4.644;2024-02-15T00:10:59;13.80;92.30
69800;DHT22;67217;51.008;4.644;2024-02-15T00:13:26;13.80;92.20
69800;DHT22;67217;51.008;4.644;2024-02-15T00:15:54;13.70;92.40
69800;DHT22;67217;51.008;4.644;2024-02-15T00:18:22;13.60;92.60
69800;DHT22;67217;51.008;4.644;2024-02-15T00:20:50;13.60;92.60
69800;DHT22;67217;51.008;4.644;2024-02-15T00:23:17;13.60;92.60
69800;DHT22;67217;51.008;4.644;2024-02-15T00:25:45;13.60;92.80
69800;DHT22;67217;51.008;4.644;2024-02-15T00:28:13;13.50;92.80
69800;DHT22;67217;51.008;4.644;2024-02-15T00:30:40;13.70;92.60
69800;DHT22;67217;51.008;4.644;2024-02-15T00:33:08;13.70;92.40
69800;DHT22;67217;51.008;4.644;2024-02-15T00:35:37;13.60;92.50
69800;DHT22;67217;51.008;4.644;2024-02-15T00:38:04;13.60;92.50
69800;DHT22;67217;51.008;4.644;2024-02-15T00:40:33;13.70;92.50
69800;DHT22;67217;51.008;4.644;2024-02-15T00:43:01;13.70;92.40
69800;DHT22;67217;51.008;4.644;2024-02-15T00:45:29;13.60;92.40
69800;DHT22;67217;51.008;4.644;2024-02-15T00:47:56;13.70;92.30
69800;DHT22;67217;51.008;4.644;2024-02-15T00:50:24;13.70;92.20
69800;DHT22;67217;51.008;4.644;2024-02-15T00:52:51;13.60;92.30
69800;DHT22;67217;51.008;4.644;2024-02-15T00:55:19;13.50;92.50
69800;DHT22;67217;51.008;4.644;2024-02-15T00:57:47;13.60;92.30
69800;DHT22;67217;51.008;4.644;2024-02-15T01:00:16;13.60;92.30
69800;DHT22;67217;51.008;4.644;2024-02-15T01:02:44;13.60;92.30
69800;DHT22;67217;51.008;4.644;2024-02-15T01:05:13;13.70;92.00
69800;DHT22;67217;51.008;4.644;2024-02-15T01:07:42;13.70;92.00
69800;DHT22;67217;51.008;4.644;2024-02-15T01:10:09;13.60;92.10
69800;DHT22;67217;51.008;4.644;2024-02-15T01:12:37;13.60;92.20
69800;DHT22;67217;51.008;4.644;2024-02-15T01:15:06;13.50;92.30
69800;DHT22;67217;51.008;4.644;2024-02-15T01:17:34;13.50;92.40
69800;DHT22;67217;51.008;4.644;2024-02-15T01:20:01;13.50;92.30
69800;DHT22;67217;51.008;4.644;2024-02-15T01:22:29;13.50;92.30
69800;DHT22;67217;51.008;4.644;2024-02-15T01:24:57;13.60;92.00
69800;DHT22;67217;51.008;4.644;2024-02-15T01:27:25;13.60;92.00
69800;DHT22;67217;51.008;4.644;2024-02-15T01:29:54;13.60;91.90
69800;DHT22;67217;51.008;4.644;2024-02-15T01:32:22;13.60;91.90
69800;DHT22;67217;51.008;4.644;2024-02-15T01:34:50;13.60;91.80
69800;DHT22;67217;51.008;4.644;2024-02-15T01:37:19;13.50;92.00
69800;DHT22;67217;51.008;4.644;2024-02-15T01:39:47;13.50;92.10
69800;DHT22;67217;51.008;4.644;2024-02-15T01:42:14;13.50;92.00
69800;DHT22;67217;51.008;4.644;2024-02-15T01:44:42;13.50;92.00
69800;DHT22;67217;51.008;4.644;2024-02-15T01:47:15;13.30;92.60
69800;DHT22;67217;51.008;4.644;2024-02-15T01:49:43;13.40;92.30
69800;DHT22;67217;51.008;4.644;2024-02-15T01:52:12;13.30;92.70
69800;DHT22;67217;51.008;4.644;2024-02-15T01:54:40;13.30;92.50
69800;DHT22;67217;51.008;4.644;2024-02-15T01:57:08;13.20;92.40
69800;DHT22;67217;51.008;4.644;2024-02-15T01:59:37;13.20;92.50
69800;DHT22;67217;51.008;4.644;2024-02-15T02:02:08;13.20;92.60
69800;DHT22;67217;51.008;4.644;2024-02-15T02:04:36;13.20;92.60
69800;DHT22;67217;51.008;4.644;2024-02-15T02:07:04;13.20;92.70
69800;DHT22;67217;51.008;4.644;2024-02-15T02:09:32;13.20;92.70
69800;DHT22;67217;51.008;4.644;2024-02-15T02:12:00;13.30;92.60
69800;DHT22;67217;51.008;4.644;2024-02-15T02:14:27;13.30;92.40
69800;DHT22;67217;51.008;4.644;2024-02-15T02:16:55;13.30;92.40
69800;DHT22;67217;51.008;4.644;2024-02-15T02:19:23;13.30;92.20
69800;DHT22;67217;51.008;4.644;2024-02-15T02:21:51;13.40;92.00
69800;DHT22;67217;51.008;4.644;2024-02-15T02:24:21;13.50;92.00
69800;DHT22;67217;51.008;4.644;2024-02-15T02:26:49;13.40;92.00
69800;DHT22;67217;51.008;4.644;2024-02-15T02:29:17;13.50;91.80
69800;DHT22;67217;51.008;4.644;2024-02-15T02:31:45;13.60;91.70
69800;DHT22;67217;51.008;4.644;2024-02-15T02:34:13;13.70;91.20
69800;DHT22;67217;51.008;4.644;2024-02-15T02:36:45;13.60;91.40
69800;DHT22;67217;51.008;4.644;2024-02-15T02:39:14;13.60;91.80
69800;DHT22;67217;51.008;4.644;2024-02-15T02:41:43;13.50;91.80
69800;DHT22;67217;51.008;4.644;2024-02-15T02:44:11;13.50;91.80
69800;DHT22;67217;51.008;4.644;2024-02-15T02:46:38;13.40;91.90
69800;DHT22;67217;51.008;4.644;2024-02-15T02:49:07;13.40;92.00
69800;DHT22;67217;51.008;4.644;2024-02-15T02:51:34;13.60;91.70
69800;DHT22;67217;51.008;4.644;2024-02-15T02:54:02;13.60;91.50
69800;DHT22;67217;51.008;4.644;2024-02-15T02:56:32;13.70;91.30
69800;DHT22;67217;51.008;4.644;2024-02-15T02:59:00;13.70;91.40
69800;DHT22;67217;51.008;4.644;2024-02-15T03:01:27;13.60;91.60
69800;DHT22;67217;51.008;4.644;2024-02-15T03:03:56;13.60;91.60
69800;DHT22;67217;51.008;4.644;2024-02-15T03:06:24;13.50;91.70
69800;DHT22;67217;51.008;4.644;2024-02-15T03:08:52;13.70;91.30
69800;DHT22;67217;51.008;4.644;2024-02-15T03:11:21;13.60;91.40
69800;DHT22;67217;51.008;4.644;2024-02-15T03:13:49;13.80;91.10
69800;DHT22;67217;51.008;4.644;2024-02-15T03:16:16;13.70;91.10
69800;DHT22;67217;51.008;4.644;2024-02-15T03:18:44;13.80;91.10
69800;DHT22;67217;51.008;4.644;2024-02-15T03:21:12;13.70;91.20
69800;DHT22;67217;51.008;4.644;2024-02-15T03:23:39;13.70;91.10
69800;DHT22;67217;51.008;4.644;2024-02-15T03:26:08;13.70;91.40
69800;DHT22;67217;51.008;4.644;2024-02-15T03:28:36;13.60;91.50
69800;DHT22;67217;51.008;4.644;2024-02-15T03:31:17;13.60;91.50
69800;DHT22;67217;51.008;4.644;2024-02-15T03:33:46;13.60;91.60
69800;DHT22;67217;51.008;4.644;2024-02-15T03:36:16;13.70;91.70
69800;DHT22;67217;51.008;4.644;2024-02-15T03:38:46;13.70;91.50
69800;DHT22;67217;51.008;4.644;2024-02-15T03:41:13;13.70;91.60
69800;DHT22;67217;51.008;4.644;2024-02-15T03:43:41;13.60;91.90
69800;DHT22;67217;51.008;4.644;2024-02-15T03:46:09;13.50;92.00
69800;DHT22;67217;51.008;4.644;2024-02-15T03:48:39;13.50;92.10
69800;DHT22;67217;51.008;4.644;2024-02-15T03:51:07;13.40;92.30
69800;DHT22;67217;51.008;4.644;2024-02-15T03:53:36;13.40;92.30
69800;DHT22;67217;51.008;4.644;2024-02-15T03:56:04;13.30;92.40
69800;DHT22;67217;51.008;4.644;2024-02-15T03:58:32;13.40;92.50
69800;DHT22;67217;51.008;4.644;2024-02-15T04:00:59;13.30;92.60
69800;DHT22;67217;51.008;4.644;2024-02-15T04:03:28;13.30;92.40
69800;DHT22;67217;51.008;4.644;2024-02-15T04:05:58;13.30;92.50
69800;DHT22;67217;51.008;4.644;2024-02-15T04:08:26;13.50;92.20
69800;DHT22;67217;51.008;4.644;2024-02-15T04:10:55;13.50;92.00
69800;DHT22;67217;51.008;4.644;2024-02-15T04:13:24;13.50;92.00
69800;DHT22;67217;51.008;4.644;2024-02-15T04:15:51;13.40;92.10
69800;DHT22;67217;51.008;4.644;2024-02-15T04:18:20;13.40;92.30
69800;DHT22;67217;51.008;4.644;2024-02-15T04:20:48;13.40;92.70
69800;DHT22;67217;51.008;4.644;2024-02-15T04:23:18;13.20;92.90
69800;DHT22;67217;51.008;4.644;2024-02-15T04:25:47;13.20;93.30
69800;DHT22;67217;51.008;4.644;2024-02-15T04:28:17;13.20;93.20
69800;DHT22;67217;51.008;4.644;2024-02-15T04:30:44;13.10;93.40
69800;DHT22;67217;51.008;4.644;2024-02-15T04:33:14;13.20;93.40
69800;DHT22;67217;51.008;4.644;2024-02-15T04:35:42;13.10;93.80
69800;DHT22;67217;51.008;4.644;2024-02-15T04:38:10;13.10;94.00
69800;DHT22;67217;51.008;4.644;2024-02-15T04:40:38;13.00;94.40
69800;DHT22;67217;51.008;4.644;2024-02-15T04:43:06;12.90;94.60
69800;DHT22;67217;51.008;4.644;2024-02-15T04:45:35;12.90;94.80
69800;DHT22;67217;51.008;4.644;2024-02-15T04:48:03;12.90;94.90
69800;DHT22;67217;51.008;4.644;2024-02-15T04:50:31;12.90;94.90
69800;DHT22;67217;51.008;4.644;2024-02-15T04:52:59;12.80;95.20
69800;DHT22;67217;51.008;4.644;2024-02-15T04:55:26;12.90;95.20
69800;DHT22;67217;51.008;4.644;2024-02-15T04:57:56;12.80;95.10
69800;DHT22;67217;51.008;4.644;2024-02-15T05:00:24;12.80;95.10
69800;DHT22;67217;51.008;4.644;2024-02-15T05:02:52;12.80;95.00
69800;DHT22;67217;51.008;4.644;2024-02-15T05:05:20;12.80;94.90
69800;DHT22;67217;51.008;4.644;2024-02-15T05:07:48;12.90;94.70
69800;DHT22;67217;51.008;4.644;2024-02-15T05:10:17;12.80;94.50
69800;DHT22;67217;51.008;4.644;2024-02-15T05:12:44;12.90;94.40
69800;DHT22;67217;51.008;4.644;2024-02-15T05:15:15;12.80;94.40
69800;DHT22;67217;51.008;4.644;2024-02-15T05:17:44;12.80;94.50
69800;DHT22;67217;51.008;4.644;2024-02-15T05:20:12;12.80;94.50
69800;DHT22;67217;51.008;4.644;2024-02-15T05:22:41;12.80;94.50
69800;DHT22;67217;51.008;4.644;2024-02-15T05:25:14;12.70;94.60
69800;DHT22;67217;51.008;4.644;2024-02-15T05:27:42;12.70;94.70
69800;DHT22;67217;51.008;4.644;2024-02-15T05:30:11;12.70;94.70
69800;DHT22;67217;51.008;4.644;2024-02-15T05:32:39;12.60;94.70
69800;DHT22;67217;51.008;4.644;2024-02-15T05:35:12;12.60;94.60
69800;DHT22;67217;51.008;4.644;2024-02-15T05:37:39;12.70;94.50
69800;DHT22;67217;51.008;4.644;2024-02-15T05:40:07;12.70;94.40
69800;DHT22;67217;51.008;4.644;2024-02-15T05:42:36;12.80;94.10
69800;DHT22;67217;51.008;4.644;2024-02-15T05:47:55;12.80;93.80
69800;DHT22;67217;51.008;4.644;2024-02-15T05:50:23;12.80;93.60
69800;DHT22;67217;51.008;4.644;2024-02-15T05:52:53;12.80;93.50
69800;DHT22;67217;51.008;4.644;2024-02-15T05:55:21;12.90;93.40
69800;DHT22;67217;51.008;4.644;2024-02-15T05:57:49;12.90;93.40
69800;DHT22;67217;51.008;4.644;2024-02-15T06:00:18;13.00;93.20
69800;DHT22;67217;51.008;4.644;2024-02-15T06:02:46;13.00;92.90
69800;DHT22;67217;51.008;4.644;2024-02-15T06:05:13;13.10;92.80
69800;DHT22;67217;51.008;4.644;2024-02-15T06:07:43;13.00;92.80
69800;DHT22;67217;51.008;4.644;2024-02-15T06:10:13;12.90;93.00
69800;DHT22;67217;51.008;4.644;2024-02-15T06:12:41;12.90;93.00
69800;DHT22;67217;51.008;4.644;2024-02-15T06:15:10;12.90;93.00
69800;DHT22;67217;51.008;4.644;2024-02-15T06:17:39;12.90;92.80
69800;DHT22;67217;51.008;4.644;2024-02-15T06:20:07;13.00;93.00
69800;DHT22;67217;51.008;4.644;2024-02-15T06:22:37;12.90;92.80
69800;DHT22;67217;51.008;4.644;2024-02-15T06:25:06;12.90;92.80
69800;DHT22;67217;51.008;4.644;2024-02-15T06:27:34;12.90;92.80
69800;DHT22;67217;51.008;4.644;2024-02-15T06:30:04;12.90;92.80
69800;DHT22;67217;51.008;4.644;2024-02-15T06:32:50;12.90;93.10
69800;DHT22;67217;51.008;4.644;2024-02-15T06:35:35;12.80;92.70
69800;DHT22;67217;51.008;4.644;2024-02-15T06:38:21;12.70;92.90
69800;DHT22;67217;51.008;4.644;2024-02-15T06:41:06;12.70;92.90
69800;DHT22;67217;51.008;4.644;2024-02-15T06:43:35;12.70;93.00
69800;DHT22;67217;51.008;4.644;2024-02-15T06:46:08;12.70;93.00
69800;DHT22;67217;51.008;4.644;2024-02-15T06:48:37;12.70;92.90
69800;DHT22;67217;51.008;4.644;2024-02-15T06:51:05;12.60;92.90
69800;DHT22;67217;51.008;4.644;2024-02-15T06:53:34;12.50;93.00
69800;DHT22;67217;51.008;4.644;2024-02-15T06:56:02;12.50;93.00
69800;DHT22;67217;51.008;4.644;2024-02-15T06:58:29;12.50;92.90
69800;DHT22;67217;51.008;4.644;2024-02-15T07:00:57;12.50;92.80
69800;DHT22;67217;51.008;4.644;2024-02-15T07:03:25;12.50;92.60
69800;DHT22;67217;51.008;4.644;2024-02-15T07:05:52;12.60;92.60
69800;DHT22;67217;51.008;4.644;2024-02-15T07:08:20;12.60;92.50
69800;DHT22;67217;51.008;4.644;2024-02-15T07:10:47;12.60;92.50
69800;DHT22;67217;51.008;4.644;2024-02-15T07:13:15;12.50;92.50
69800;DHT22;67217;51.008;4.644;2024-02-15T07:15:44;12.60;92.50
69800;DHT22;67217;51.008;4.644;2024-02-15T07:18:13;12.60;92.40
69800;DHT22;67217;51.008;4.644;2024-02-15T07:20:42;12.60;92.20
69800;DHT22;67217;51.008;4.644;2024-02-15T07:23:10;12.60;92.10
69800;DHT22;67217;51.008;4.644;2024-02-15T07:25:38;12.80;91.80
69800;DHT22;67217;51.008;4.644;2024-02-15T07:28:05;12.90;91.60
69800;DHT22;67217;51.008;4.644;2024-02-15T07:30:35;12.90;91.50
69800;DHT22;67217;51.008;4.644;2024-02-15T07:33:03;13.20;91.00
69800;DHT22;67217;51.008;4.644;2024-02-15T07:35:33;13.20;90.50
69800;DHT22;67217;51.008;4.644;2024-02-15T07:38:01;13.20;90.50
69800;DHT22;67217;51.008;4.644;2024-02-15T07:40:30;13.20;90.40
69800;DHT22;67217;51.008;4.644;2024-02-15T07:42:58;13.20;90.50
69800;DHT22;67217;51.008;4.644;2024-02-15T07:45:26;13.20;90.50
69800;DHT22;67217;51.008;4.644;2024-02-15T07:47:54;13.20;90.50
69800;DHT22;67217;51.008;4.644;2024-02-15T07:50:22;13.30;90.40
69800;DHT22;67217;51.008;4.644;2024-02-15T07:52:50;13.40;90.20
69800;DHT22;67217;51.008;4.644;2024-02-15T07:55:17;13.50;90.10
69800;DHT22;67217;51.008;4.644;2024-02-15T07:57:45;13.50;90.00
69800;DHT22;67217;51.008;4.644;2024-02-15T08:00:15;13.60;89.40
69800;DHT22;67217;51.008;4.644;2024-02-15T08:02:43;13.70;88.80
69800;DHT22;67217;51.008;4.644;2024-02-15T08:05:12;13.80;88.50
69800;DHT22;67217;51.008;4.644;2024-02-15T08:07:45;13.90;87.70
69800;DHT22;67217;51.008;4.644;2024-02-15T08:10:13;13.80;87.50
69800;DHT22;67217;51.008;4.644;2024-02-15T08:12:42;13.80;87.90
69800;DHT22;67217;51.008;4.644;2024-02-15T08:15:10;13.80;88.10
69800;DHT22;67217;51.008;4.644;2024-02-15T08:17:39;13.80;88.20
69800;DHT22;67217;51.008;4.644;2024-02-15T08:20:11;13.80;88.30
69800;DHT22;67217;51.008;4.644;2024-02-15T08:22:37;13.90;88.10
69800;DHT22;67217;51.008;4.644;2024-02-15T08:25:13;14.00;88.20
69800;DHT22;67217;51.008;4.644;2024-02-15T08:27:47;13.90;87.80
69800;DHT22;67217;51.008;4.644;2024-02-15T08:30:16;14.00;87.40
69800;DHT22;67217;51.008;4.644;2024-02-15T08:32:44;14.10;87.50
69800;DHT22;67217;51.008;4.644;2024-02-15T08:35:14;14.10;86.80
69800;DHT22;67217;51.008;4.644;2024-02-15T08:37:42;14.10;87.20
69800;DHT22;67217;51.008;4.644;2024-02-15T08:40:11;14.30;86.20
69800;DHT22;67217;51.008;4.644;2024-02-15T08:42:41;14.30;85.70
69800;DHT22;67217;51.008;4.644;2024-02-15T08:45:09;14.50;85.10
69800;DHT22;67217;51.008;4.644;2024-02-15T08:47:43;14.50;84.40
69800;DHT22;67217;51.008;4.644;2024-02-15T08:50:08;14.70;83.70
69800;DHT22;67217;51.008;4.644;2024-02-15T08:52:37;14.80;83.60
69800;DHT22;67217;51.008;4.644;2024-02-15T08:55:09;14.80;83.80
69800;DHT22;67217;51.008;4.644;2024-02-15T08:57:37;14.80;83.60
69800;DHT22;67217;51.008;4.644;2024-02-15T09:00:07;15.00;83.70
69800;DHT22;67217;51.008;4.644;2024-02-15T09:02:37;15.20;83.00
69800;DHT22;67217;51.008;4.644;2024-02-15T09:05:04;15.50;81.40
69800;DHT22;67217;51.008;4.644;2024-02-15T09:07:32;15.60;80.20
69800;DHT22;67217;51.008;4.644;2024-02-15T09:10:00;15.70;80.50
69800;DHT22;67217;51.008;4.644;2024-02-15T09:12:27;15.80;80.30
69800;DHT22;67217;51.008;4.644;2024-02-15T09:14:55;16.00;79.50
69800;DHT22;67217;51.008;4.644;2024-02-15T09:17:22;16.00;78.70
69800;DHT22;67217;51.008;4.644;2024-02-15T09:19:50;16.10;78.60
69800;DHT22;67217;51.008;4.644;2024-02-15T09:22:18;16.10;77.80
69800;DHT22;67217;51.008;4.644;2024-02-15T09:24:46;16.10;76.90
69800;DHT22;67217;51.008;4.644;2024-02-15T09:27:14;16.20;77.40
69800;DHT22;67217;51.008;4.644;2024-02-15T09:29:42;16.20;76.90
69800;DHT22;67217;51.008;4.644;2024-02-15T09:32:09;16.20;77.40
69800;DHT22;67217;51.008;4.644;2024-02-15T09:34:37;16.40;78.10
69800;DHT22;67217;51.008;4.644;2024-02-15T09:37:05;16.30;78.60
69800;DHT22;67217;51.008;4.644;2024-02-15T09:39:32;16.50;78.30
69800;DHT22;67217;51.008;4.644;2024-02-15T09:42:01;16.70;77.00
69800;DHT22;67217;51.008;4.644;2024-02-15T09:44:30;16.80;77.10
69800;DHT22;67217;51.008;4.644;2024-02-15T09:47:05;16.90;76.40
69800;DHT22;67217;51.008;4.644;2024-02-15T09:49:39;17.10;74.50
69800;DHT22;67217;51.008;4.644;2024-02-15T09:52:10;17.20;73.50
69800;DHT22;67217;51.008;4.644;2024-02-15T09:54:40;17.30;73.50
69800;DHT22;67217;51.008;4.644;2024-02-15T09:57:11;17.20;73.30
69800;DHT22;67217;51.008;4.644;2024-02-15T09:59:39;17.20;73.30
69800;DHT22;67217;51.008;4.644;2024-02-15T10:02:09;17.20;73.30
69800;DHT22;67217;51.008;4.644;2024-02-15T10:04:40;17.40;72.10
69800;DHT22;67217;51.008;4.644;2024-02-15T10:07:08;17.60;71.70
69800;DHT22;67217;51.008;4.644;2024-02-15T10:09:36;17.30;72.00
69800;DHT22;67217;51.008;4.644;2024-02-15T10:12:05;17.30;72.40
69800;DHT22;67217;51.008;4.644;2024-02-15T10:14:34;17.40;71.50
69800;DHT22;67217;51.008;4.644;2024-02-15T10:17:09;17.30;71.90
69800;DHT22;67217;51.008;4.644;2024-02-15T10:19:41;17.20;72.00
69800;DHT22;67217;51.008;4.644;2024-02-15T10:22:10;16.90;72.30
69800;DHT22;67217;51.008;4.644;2024-02-15T10:24:39;16.70;73.00
69800;DHT22;67217;51.008;4.644;2024-02-15T10:27:07;16.50;74.10
69800;DHT22;67217;51.008;4.644;2024-02-15T10:29:34;16.40;74.00
69800;DHT22;67217;51.008;4.644;2024-02-15T10:32:03;16.50;74.10
69800;DHT22;67217;51.008;4.644;2024-02-15T10:34:33;16.60;73.30
69800;DHT22;67217;51.008;4.644;2024-02-15T10:37:13;16.80;72.80
69800;DHT22;67217;51.008;4.644;2024-02-15T10:39:43;17.10;72.10
69800;DHT22;67217;51.008;4.644;2024-02-15T10:42:10;17.20;71.20
69800;DHT22;67217;51.008;4.644;2024-02-15T10:44:39;17.30;71.00
69800;DHT22;67217;51.008;4.644;2024-02-15T10:47:08;17.40;70.20
69800;DHT22;67217;51.008;4.644;2024-02-15T10:49:36;17.50;69.40
69800;DHT22;67217;51.008;4.644;2024-02-15T10:52:05;17.80;68.40
69800;DHT22;67217;51.008;4.644;2024-02-15T10:54:47;18.10;68.30
69800;DHT22;67217;51.008;4.644;2024-02-15T10:57:13;18.00;66.40
69800;DHT22;67217;51.008;4.644;2024-02-15T10:59:57;18.20;65.70
69800;DHT22;67217;51.008;4.644;2024-02-15T11:02:29;18.50;65.20
69800;DHT22;67217;51.008;4.644;2024-02-15T11:05:01;18.70;63.70
69800;DHT22;67217;51.008;4.644;2024-02-15T11:07:35;18.60;63.20
69800;DHT22;67217;51.008;4.644;2024-02-15T11:10:02;18.90;62.90
69800;DHT22;67217;51.008;4.644;2024-02-15T11:12:32;18.90;61.30
69800;DHT22;67217;51.008;4.644;2024-02-15T11:15:00;18.70;62.20
69800;DHT22;67217;51.008;4.644;2024-02-15T11:20:09;18.70;63.20
69800;DHT22;67217;51.008;4.644;2024-02-15T11:22:38;18.90;62.10
69800;DHT22;67217;51.008;4.644;2024-02-15T11:25:10;18.70;61.50
69800;DHT22;67217;51.008;4.644;2024-02-15T11:27:39;18.20;62.80
69800;DHT22;67217;51.008;4.644;2024-02-15T11:30:08;18.00;63.50
69800;DHT22;67217;51.008;4.644;2024-02-15T11:32:49;18.00;64.70
69800;DHT22;67217;51.008;4.644;2024-02-15T11:35:25;18.00;64.40
69800;DHT22;67217;51.008;4.644;2024-02-15T11:37:56;18.00;65.60
69800;DHT22;67217;51.008;4.644;2024-02-15T11:40:59;18.10;63.80
69800;DHT22;67217;51.008;4.644;2024-02-15T11:46:25;18.10;64.10
69800;DHT22;67217;51.008;4.644;2024-02-15T11:49:00;18.10;66.10
69800;DHT22;67217;51.008;4.644;2024-02-15T11:51:31;18.00;63.90
69800;DHT22;67217;51.008;4.644;2024-02-15T11:54:05;18.00;64.50
69800;DHT22;67217;51.008;4.644;2024-02-15T11:59:21;18.00;64.60
69800;DHT22;67217;51.008;4.644;2024-02-15T12:02:03;17.90;65.60
69800;DHT22;67217;51.008;4.644;2024-02-15T12:04:49;17.90;65.30
69800;DHT22;67217;51.008;4.644;2024-02-15T12:07:34;17.90;65.90
69800;DHT22;67217;51.008;4.644;2024-02-15T12:10:20;18.00;66.40
69800;DHT22;67217;51.008;4.644;2024-02-15T12:13:05;17.70;66.20
69800;DHT22;67217;51.008;4.644;2024-02-15T12:16:00;17.60;66.20
69800;DHT22;67217;51.008;4.644;2024-02-15T12:18:46;17.60;65.60
69800;DHT22;67217;51.008;4.644;2024-02-15T12:21:17;17.40;65.20
69800;DHT22;67217;51.008;4.644;2024-02-15T12:23:45;17.40;64.90
69800;DHT22;67217;51.008;4.644;2024-02-15T12:26:14;17.60;64.40
69800;DHT22;67217;51.008;4.644;2024-02-15T12:28:42;17.70;64.30
69800;DHT22;67217;51.008;4.644;2024-02-15T12:31:10;17.50;65.00
69800;DHT22;67217;51.008;4.644;2024-02-15T12:33:39;17.30;66.10
69800;DHT22;67217;51.008;4.644;2024-02-15T12:36:07;17.20;66.80
69800;DHT22;67217;51.008;4.644;2024-02-15T12:38:36;17.30;67.50
69800;DHT22;67217;51.008;4.644;2024-02-15T12:41:21;17.40;67.30
69800;DHT22;67217;51.008;4.644;2024-02-15T12:43:53;17.50;66.60
69800;DHT22;67217;51.008;4.644;2024-02-15T12:46:23;17.40;67.20
69800;DHT22;67217;51.008;4.644;2024-02-15T12:49:06;17.30;67.10
69800;DHT22;67217;51.008;4.644;2024-02-15T12:51:23;17.40;67.70
69800;DHT22;67217;51.008;4.644;2024-02-15T12:53:51;17.40;66.90
69800;DHT22;67217;51.008;4.644;2024-02-15T12:56:21;17.40;65.80
69800;DHT22;67217;51.008;4.644;2024-02-15T12:58:50;17.50;65.60
69800;DHT22;67217;51.008;4.644;2024-02-15T13:01:18;17.70;64.40
69800;DHT22;67217;51.008;4.644;2024-02-15T13:03:47;17.80;63.10
69800;DHT22;67217;51.008;4.644;2024-02-15T13:06:20;18.00;63.60
69800;DHT22;67217;51.008;4.644;2024-02-15T13:08:50;18.10;62.30
69800;DHT22;67217;51.008;4.644;2024-02-15T13:11:18;18.10;63.10
69800;DHT22;67217;51.008;4.644;2024-02-15T13:13:46;18.20;62.80
69800;DHT22;67217;51.008;4.644;2024-02-15T13:16:14;18.20;61.80
69800;DHT22;67217;51.008;4.644;2024-02-15T13:18:41;18.20;61.80
69800;DHT22;67217;51.008;4.644;2024-02-15T13:21:10;18.00;60.70
69800;DHT22;67217;51.008;4.644;2024-02-15T13:23:38;17.90;61.10
69800;DHT22;67217;51.008;4.644;2024-02-15T13:26:05;18.00;61.60
69800;DHT22;67217;51.008;4.644;2024-02-15T13:28:34;17.80;60.30
69800;DHT22;67217;51.008;4.644;2024-02-15T13:31:02;17.90;60.20
69800;DHT22;67217;51.008;4.644;2024-02-15T13:33:30;18.20;60.80
69800;DHT22;67217;51.008;4.644;2024-02-15T13:35:58;18.30;59.60
69800;DHT22;67217;51.008;4.644;2024-02-15T13:38:26;18.10;59.20
69800;DHT22;67217;51.008;4.644;2024-02-15T13:40:54;18.10;59.70
69800;DHT22;67217;51.008;4.644;2024-02-15T13:43:23;18.00;59.50
69800;DHT22;67217;51.008;4.644;2024-02-15T13:45:51;18.10;58.90
69800;DHT22;67217;51.008;4.644;2024-02-15T13:48:38;18.20;59.30
69800;DHT22;67217;51.008;4.644;2024-02-15T13:51:26;18.20;59.40
69800;DHT22;67217;51.008;4.644;2024-02-15T13:53:53;18.20;58.80
69800;DHT22;67217;51.008;4.644;2024-02-15T13:56:22;18.30;59.20
69800;DHT22;67217;51.008;4.644;2024-02-15T13:58:50;18.40;59.20
69800;DHT22;67217;51.008;4.644;2024-02-15T14:01:18;18.60;59.10
69800;DHT22;67217;51.008;4.644;2024-02-15T14:03:45;18.30;59.10
69800;DHT22;67217;51.008;4.644;2024-02-15T14:06:13;18.20;58.90
69800;DHT22;67217;51.008;4.644;2024-02-15T14:08:42;18.10;59.40
69800;DHT22;67217;51.008;4.644;2024-02-15T14:11:09;18.00;59.70
69800;DHT22;67217;51.008;4.644;2024-02-15T14:13:37;18.00;59.80
69800;DHT22;67217;51.008;4.644;2024-02-15T14:16:05;17.90;60.50
69800;DHT22;67217;51.008;4.644;2024-02-15T14:18:34;17.80;60.00
69800;DHT22;67217;51.008;4.644;2024-02-15T14:21:02;17.80;60.60
69800;DHT22;67217;51.008;4.644;2024-02-15T14:23:30;17.90;60.50
69800;DHT22;67217;51.008;4.644;2024-02-15T14:25:58;17.90;59.50
69800;DHT22;67217;51.008;4.644;2024-02-15T14:28:27;17.80;60.30
69800;DHT22;67217;51.008;4.644;2024-02-15T14:30:55;17.80;60.90
69800;DHT22;67217;51.008;4.644;2024-02-15T14:33:41;17.80;60.60
69800;DHT22;67217;51.008;4.644;2024-02-15T14:36:08;18.00;61.40
69800;DHT22;67217;51.008;4.644;2024-02-15T14:38:36;17.80;61.80
69800;DHT22;67217;51.008;4.644;2024-02-15T14:41:04;17.60;61.90
69800;DHT22;67217;51.008;4.644;2024-02-15T14:43:32;17.50;62.80
69800;DHT22;67217;51.008;4.644;2024-02-15T14:46:00;17.40;63.20
69800;DHT22;67217;51.008;4.644;2024-02-15T14:48:29;17.30;63.20
69800;DHT22;67217;51.008;4.644;2024-02-15T14:50:58;17.30;63.20
69800;DHT22;67217;51.008;4.644;2024-02-15T14:53:26;17.30;64.30
69800;DHT22;67217;51.008;4.644;2024-02-15T14:55:57;17.20;64.20
69800;DHT22;67217;51.008;4.644;2024-02-15T14:58:24;17.30;64.10
69800;DHT22;67217;51.008;4.644;2024-02-15T15:00:53;17.30;64.70
69800;DHT22;67217;51.008;4.644;2024-02-15T15:03:23;17.20;65.00
69800;DHT22;67217;51.008;4.644;2024-02-15T15:05:50;17.30;65.30
69800;DHT22;67217;51.008;4.644;2024-02-15T15:08:36;17.20;65.00
69800;DHT22;67217;51.008;4.644;2024-02-15T15:11:22;17.20;65.30
69800;DHT22;67217;51.008;4.644;2024-02-15T15:14:08;17.10;65.70
69800;DHT22;67217;51.008;4.644;2024-02-15T15:16:35;17.10;65.70
69800;DHT22;67217;51.008;4.644;2024-02-15T15:19:03;17.10;65.50
69800;DHT22;67217;51.008;4.644;2024-02-15T15:21:30;17.00;64.30
69800;DHT22;67217;51.008;4.644;2024-02-15T15:23:58;16.90;65.10
69800;DHT22;67217;51.008;4.644;2024-02-15T15:26:26;16.90;65.10
69800;DHT22;67217;51.008;4.644;2024-02-15T15:28:53;16.80;65.20
69800;DHT22;67217;51.008;4.644;2024-02-15T15:31:21;16.80;66.30
69800;DHT22;67217;51.008;4.644;2024-02-15T15:33:49;16.90;66.20
69800;DHT22;67217;51.008;4.644;2024-02-15T15:36:17;17.00;65.60
69800;DHT22;67217;51.008;4.644;2024-02-15T15:38:45;17.00;65.20
69800;DHT22;67217;51.008;4.644;2024-02-15T15:41:13;16.90;64.90
69800;DHT22;67217;51.008;4.644;2024-02-15T15:43:41;16.80;65.10
69800;DHT22;67217;51.008;4.644;2024-02-15T15:46:15;16.80;65.90
69800;DHT22;67217;51.008;4.644;2024-02-15T15:48:43;16.80;66.50
69800;DHT22;67217;51.008;4.644;2024-02-15T15:51:11;16.70;66.50
69800;DHT22;67217;51.008;4.644;2024-02-15T15:53:40;16.60;66.80
69800;DHT22;67217;51.008;4.644;2024-02-15T15:56:08;16.50;67.50